createdAt,value
2023-02-13T00:00:53.925Z,101387.56
2023-02-13T00:03:23.574Z,101396.19
2023-02-13T00:05:50.713Z,101387.56
2023-02-13T00:08:17.911Z,101391.16
2023-02-13T00:10:44.887Z,101392.84
2023-02-13T00:13:12.201Z,101398.38
2023-02-13T00:15:39.244Z,101386.41
2023-02-13T00:18:06.633Z,101395.03
2023-02-13T00:20:33.636Z,101396.84
2023-02-13T00:23:01.196Z,101393.94
2023-02-13T00:25:28.704Z,101400.78
2023-02-13T00:27:55.874Z,101395.50
2023-02-13T00:30:22.919Z,101400.06
2023-02-13T00:32:51.643Z,101382.38
2023-02-13T00:35:18.818Z,101384.91
2023-02-13T00:37:46.109Z,101389.22
2023-02-13T00:40:13.769Z,101390.31
2023-02-13T00:42:40.998Z,101390.31
2023-02-13T00:45:08.669Z,101390.31
2023-02-13T00:47:35.993Z,101393.81
2023-02-13T00:50:03.357Z,101379.88
2023-02-13T00:52:30.719Z,101375.56
2023-02-13T00:54:57.770Z,101383.63
2023-02-13T00:57:24.985Z,101389.03
2023-02-13T00:59:52.018Z,101390.59
2023-02-13T01:02:19.305Z,101384.47
2023-02-13T01:04:46.445Z,101375.84
2023-02-13T01:07:15.709Z,101365.25
2023-02-13T01:09:44.609Z,101366.34
2023-02-13T01:12:12.197Z,101360.22
2023-02-13T01:14:39.238Z,101351.59
2023-02-13T01:17:06.470Z,101353.25
2023-02-13T01:19:33.545Z,101354.94
2023-02-13T01:22:00.845Z,101340.75
2023-02-13T01:24:29.972Z,101346.16
2023-02-13T01:26:58.920Z,101341.03
2023-02-13T01:29:25.899Z,101340.03
2023-02-13T01:31:53.864Z,101342.69
2023-02-13T01:34:20.900Z,101337.66
2023-02-13T01:36:48.104Z,101333.09
2023-02-13T01:39:15.116Z,101324.34
2023-02-13T01:41:43.172Z,101326.84
2023-02-13T01:44:53.539Z,101326.84
2023-02-13T01:47:28.912Z,101324.09
2023-02-13T01:50:05.646Z,101323.75
2023-02-13T01:52:36.086Z,101320.13
2023-02-13T01:55:06.984Z,101317.25
2023-02-13T01:57:37.498Z,101315.56
2023-02-13T02:00:12.067Z,101313.16
2023-02-13T02:02:56.786Z,101314.66
2023-02-13T02:05:30.392Z,101303.88
2023-02-13T02:08:02.463Z,101298.59
2023-02-13T02:10:30.059Z,101300.28
2023-02-13T02:13:14.207Z,101302.47
2023-02-13T02:15:43.045Z,101292.75
2023-02-13T02:18:24.504Z,101293.59
2023-02-13T02:21:22.279Z,101296.94
2023-02-13T02:24:27.646Z,101286.38
2023-02-13T02:27:08.620Z,101282.03
2023-02-13T02:30:03.367Z,101287.47
2023-02-13T02:32:53.321Z,101293.59
2023-02-13T02:35:38.557Z,101300.78
2023-02-13T02:38:34.379Z,101299.13
2023-02-13T02:41:39.159Z,101290.34
2023-02-13T02:44:30.808Z,101283.13
2023-02-13T02:47:54.482Z,101288.31
2023-02-13T02:50:49.530Z,101302.22
2023-02-13T02:53:48.954Z,101295.25
2023-02-13T02:56:38.254Z,101304.16
2023-02-13T02:59:36.342Z,101297.19
2023-02-13T03:02:25.139Z,101300.53
2023-02-13T03:05:17.203Z,101305.81
2023-02-13T03:07:44.236Z,101304.16
2023-02-13T03:10:41.574Z,101306.06
2023-02-13T03:13:28.288Z,101312.34
2023-02-13T03:16:19.233Z,101303.44
2023-02-13T03:19:16.399Z,101304.41
2023-02-13T03:22:18.896Z,101311.63
2023-02-13T03:25:10.852Z,101311.88
2023-02-13T03:28:34.401Z,101314.50
2023-02-13T03:31:23.239Z,101315.47
2023-02-13T03:34:11.804Z,101318.25
2023-02-13T03:37:03.015Z,101317.66
2023-02-13T03:40:03.234Z,101315.84
2023-02-13T03:42:42.960Z,101330.59
2023-02-13T03:45:37.785Z,101326.88
2023-02-13T03:48:31.864Z,101326.03
2023-02-13T03:51:05.011Z,101318.09
2023-02-13T03:53:35.874Z,101324.38
2023-02-13T03:56:23.272Z,101324.63
2023-02-13T03:59:16.005Z,101328.22
2023-02-13T04:02:14.602Z,101321.28
2023-02-13T04:05:03.970Z,101326.56
2023-02-13T04:07:32.201Z,101327.97
2023-02-13T04:10:10.328Z,101327.72
2023-02-13T04:12:59.787Z,101327.47
2023-02-13T04:16:14.275Z,101323.84
2023-02-13T04:18:43.921Z,101325.53
2023-02-13T04:21:11.097Z,101325.53
2023-02-13T04:23:38.308Z,101322.06
2023-02-13T04:26:18.112Z,101322.31
2023-02-13T04:28:45.487Z,101316.44
2023-02-13T04:31:12.712Z,101316.69
2023-02-13T04:33:40.153Z,101309.63
2023-02-13T04:36:07.680Z,101324.47
2023-02-13T04:38:34.948Z,101319.09
2023-02-13T04:41:01.900Z,101317.41
2023-02-13T04:43:28.925Z,101325.31
2023-02-13T04:45:56.379Z,101319.09
2023-02-13T04:48:23.761Z,101319.09
2023-02-13T04:50:50.907Z,101315.75
2023-02-13T04:53:18.000Z,101321.03
2023-02-13T04:55:45.264Z,101320.75
2023-02-13T04:58:12.385Z,101320.50
2023-02-13T05:00:39.886Z,101314.50
2023-02-13T05:03:13.116Z,101320.50
2023-02-13T05:05:40.663Z,101311.88
2023-02-13T05:08:09.213Z,101312.47
2023-02-13T05:10:36.927Z,101314.13
2023-02-13T05:13:03.892Z,101320.25
2023-02-13T05:15:31.254Z,101313.56
2023-02-13T05:17:58.649Z,101315.22
2023-02-13T05:20:26.023Z,101317.88
2023-02-13T05:23:13.440Z,101322.44
2023-02-13T05:25:42.065Z,101323.38
2023-02-13T05:28:28.330Z,101317.41
2023-02-13T05:30:56.270Z,101314.31
2023-02-13T05:33:23.666Z,101320.56
2023-02-13T05:35:51.038Z,101322.22
2023-02-13T05:38:18.012Z,101319.59
2023-02-13T05:40:45.410Z,101324.03
2023-02-13T05:43:12.655Z,101318.88
2023-02-13T05:45:39.836Z,101324.88
2023-02-13T05:48:06.738Z,101323.06
2023-02-13T05:50:34.073Z,101332.78
2023-02-13T05:53:01.686Z,101330.84
2023-02-13T05:55:29.159Z,101327.97
2023-02-13T05:57:57.769Z,101333.25
2023-02-13T06:00:25.582Z,101333.25
2023-02-13T06:02:52.645Z,101330.59
2023-02-13T06:05:20.162Z,101332.41
2023-02-13T06:07:47.110Z,101330.75
2023-02-13T06:10:14.493Z,101331.31
2023-02-13T06:12:43.274Z,101329.41
2023-02-13T06:15:10.592Z,101322.19
2023-02-13T06:17:37.679Z,101321.91
2023-02-13T06:20:06.667Z,101324.19
2023-02-13T06:22:33.625Z,101322.38
2023-02-13T06:25:00.816Z,101319.47
2023-02-13T06:27:28.064Z,101327.28
2023-02-13T06:29:55.347Z,101324.28
2023-02-13T06:32:22.306Z,101326.66
2023-02-13T06:34:49.673Z,101326.53
2023-02-13T06:37:16.541Z,101326.38
2023-02-13T06:39:43.801Z,101332.38
2023-02-13T06:42:10.816Z,101335.75
2023-02-13T06:44:38.042Z,101334.06
2023-02-13T06:47:04.971Z,101343.22
2023-02-13T06:49:32.528Z,101350.16
2023-02-13T06:51:59.425Z,101351.84
2023-02-13T06:54:37.816Z,101351.59
2023-02-13T06:57:13.191Z,101354.09
2023-02-13T06:59:40.381Z,101349.66
2023-02-13T07:02:10.240Z,101354.69
2023-02-13T07:04:37.623Z,101357.06
2023-02-13T07:07:05.269Z,101349.13
2023-02-13T07:09:32.858Z,101346.25
2023-02-13T07:12:04.221Z,101350.56
2023-02-13T07:14:31.541Z,101357.25
2023-02-13T07:16:59.105Z,101355.31
2023-02-13T07:19:26.468Z,101361.19
2023-02-13T07:21:53.463Z,101360.09
2023-02-13T07:24:20.947Z,101355.38
2023-02-13T07:26:47.900Z,101349.00
2023-02-13T07:29:15.195Z,101352.38
2023-02-13T07:31:42.238Z,101360.00
2023-02-13T07:34:09.620Z,101360.72
2023-02-13T07:36:36.752Z,101362.16
2023-02-13T07:39:04.012Z,101360.22
2023-02-13T07:41:30.961Z,101346.75
2023-02-13T07:43:58.199Z,101351.47
2023-02-13T07:46:25.227Z,101355.69
2023-02-13T07:48:53.358Z,101353.63
2023-02-13T07:51:20.679Z,101351.41
2023-02-13T07:53:47.906Z,101353.81
2023-02-13T07:56:15.060Z,101354.25
2023-02-13T07:58:42.360Z,101350.34
2023-02-13T08:01:19.909Z,101348.41
2023-02-13T08:03:51.344Z,101352.34
2023-02-13T08:06:20.394Z,101352.88
2023-02-13T08:08:47.725Z,101345.38
2023-02-13T08:11:51.743Z,101339.84
2023-02-13T08:14:21.152Z,101334.00
2023-02-13T08:16:48.610Z,101329.59
2023-02-13T08:19:16.331Z,101331.81
2023-02-13T08:21:43.837Z,101337.25
2023-02-13T08:24:11.633Z,101345.78
2023-02-13T08:26:39.629Z,101347.16
2023-02-13T08:29:07.953Z,101339.53
2023-02-13T08:31:35.164Z,101336.47
2023-02-13T08:34:02.592Z,101331.59
2023-02-13T08:36:31.284Z,101338.00
2023-02-13T08:38:58.568Z,101337.44
2023-02-13T08:41:25.641Z,101347.22
2023-02-13T08:43:55.190Z,101343.16
2023-02-13T08:46:22.741Z,101332.72
2023-02-13T08:48:53.220Z,101331.88
2023-02-13T08:51:20.249Z,101336.34
2023-02-13T08:53:47.447Z,101322.38
2023-02-13T08:56:14.491Z,101328.78
2023-02-13T08:58:41.764Z,101338.78
2023-02-13T09:01:09.855Z,101337.53
2023-02-13T09:03:37.587Z,101336.28
2023-02-13T09:06:05.126Z,101326.75
2023-02-13T09:08:35.082Z,101322.53
2023-02-13T09:11:06.546Z,101316.53
2023-02-13T09:13:36.968Z,101315.78
2023-02-13T09:16:07.431Z,101322.53
2023-02-13T09:18:35.347Z,101319.44
2023-02-13T09:21:11.206Z,101323.63
2023-02-13T09:23:40.861Z,101330.28
2023-02-13T09:26:12.467Z,101328.03
2023-02-13T09:28:40.995Z,101323.53
2023-02-13T09:31:11.096Z,101328.22
2023-02-13T09:33:38.921Z,101325.84
2023-02-13T09:36:13.702Z,101320.75
2023-02-13T09:38:44.104Z,101322.84
2023-02-13T09:41:42.780Z,101313.97
2023-02-13T09:44:43.427Z,101314.34
2023-02-13T09:47:13.414Z,101319.38
2023-02-13T09:49:50.524Z,101322.41
2023-02-13T09:52:17.572Z,101313.16
2023-02-13T09:54:44.908Z,101312.56
2023-02-13T09:57:41.716Z,101307.53
2023-02-13T10:00:23.935Z,101310.59
2023-02-13T10:02:57.042Z,101318.56
2023-02-13T10:05:54.314Z,101301.31
2023-02-13T10:08:49.814Z,101305.31
2023-02-13T10:11:43.899Z,101303.38
2023-02-13T10:14:37.272Z,101297.06
2023-02-13T10:17:20.136Z,101294.63
2023-02-13T10:19:55.626Z,101295.84
2023-02-13T10:22:49.633Z,101297.59
2023-02-13T10:25:30.068Z,101287.31
2023-02-13T10:28:17.418Z,101286.03
2023-02-13T10:30:56.278Z,101266.25
2023-02-13T10:33:31.845Z,101270.63
2023-02-13T10:36:34.500Z,101254.91
2023-02-13T10:39:28.706Z,101258.63
2023-02-13T10:42:43.730Z,101252.66
2023-02-13T10:45:41.669Z,101251.19
2023-02-13T10:48:49.943Z,101251.56
2023-02-13T10:52:04.986Z,101250.41
2023-02-13T10:55:01.615Z,101243.28
2023-02-13T10:58:02.176Z,101237.47
2023-02-13T11:01:08.037Z,101229.84
2023-02-13T11:03:35.588Z,101232.19
2023-02-13T11:06:09.383Z,101231.03
2023-02-13T11:08:46.046Z,101224.88
2023-02-13T11:11:49.856Z,101223.06
2023-02-13T11:14:26.522Z,101226.16
2023-02-13T11:17:12.346Z,101215.03
2023-02-13T11:19:54.083Z,101208.84
2023-02-13T11:22:38.228Z,101212.50
2023-02-13T11:25:19.956Z,101212.19
2023-02-13T11:27:50.910Z,101212.41
2023-02-13T11:30:36.127Z,101212.06
2023-02-13T11:33:17.788Z,101213.88
2023-02-13T11:35:47.710Z,101214.91
2023-02-13T11:38:20.490Z,101211.88
2023-02-13T11:41:05.594Z,101212.53
2023-02-13T11:43:48.541Z,101223.22
2023-02-13T11:46:26.379Z,101218.56
2023-02-13T11:49:07.292Z,101219.91
2023-02-13T11:51:43.542Z,101222.22
2023-02-13T11:54:27.613Z,101224.50
2023-02-13T11:57:20.772Z,101210.84
2023-02-13T11:59:52.837Z,101212.84
2023-02-13T12:02:30.422Z,101223.91
2023-02-13T12:05:20.938Z,101226.00
2023-02-13T12:07:49.310Z,101220.94
2023-02-13T12:10:31.876Z,101208.81
2023-02-13T12:13:06.577Z,101223.91
2023-02-13T12:15:37.112Z,101216.31
2023-02-13T12:18:27.020Z,101214.31
2023-02-13T12:21:27.042Z,101205.97
2023-02-13T12:24:22.557Z,101200.63
2023-02-13T12:27:07.216Z,101198.94
2023-02-13T12:30:03.688Z,101190.00
2023-02-13T12:33:27.236Z,101191.50
2023-02-13T12:35:59.911Z,101195.69
2023-02-13T12:38:58.309Z,101193.03
2023-02-13T12:41:47.184Z,101184.16
2023-02-13T12:44:35.912Z,101177.91
2023-02-13T12:47:27.028Z,101165.31
2023-02-13T12:50:29.046Z,101162.84
2023-02-13T12:53:33.253Z,101159.84
2023-02-13T12:56:34.058Z,101165.38
2023-02-13T12:59:11.001Z,101158.53
2023-02-13T13:02:09.334Z,101169.41
2023-02-13T13:05:24.092Z,101169.41
2023-02-13T13:08:20.406Z,101162.06
2023-02-13T13:11:08.222Z,101163.41
2023-02-13T13:14:03.448Z,101164.72
2023-02-13T13:17:07.032Z,101174.03
2023-02-13T13:20:24.082Z,101181.66
2023-02-13T13:23:15.241Z,101179.63
2023-02-13T13:26:07.365Z,101186.59
2023-02-13T13:28:44.360Z,101192.19
2023-02-13T13:31:13.725Z,101185.16
2023-02-13T13:33:46.108Z,101188.13
2023-02-13T13:36:38.316Z,101192.44
2023-02-13T13:39:17.712Z,101188.44
2023-02-13T13:42:17.072Z,101178.22
2023-02-13T13:45:08.462Z,101184.03
2023-02-13T13:48:05.980Z,101186.03
2023-02-13T13:50:40.419Z,101188.84
2023-02-13T13:53:25.548Z,101185.34
2023-02-13T13:55:56.418Z,101186.34
2023-02-13T13:58:47.875Z,101184.81
2023-02-13T14:01:18.206Z,101186.50
2023-02-13T14:03:54.716Z,101183.00
2023-02-13T14:06:48.011Z,101178.66
2023-02-13T14:09:42.468Z,101172.00
2023-02-13T14:12:25.124Z,101167.00
2023-02-13T14:14:54.140Z,101167.00
2023-02-13T14:17:46.320Z,101176.66
2023-02-13T14:20:51.971Z,101177.63
2023-02-13T14:23:42.283Z,101176.94
2023-02-13T14:26:15.477Z,101179.91
2023-02-13T14:28:51.715Z,101172.94
2023-02-13T14:31:42.408Z,101166.25
2023-02-13T14:34:26.548Z,101159.59
2023-02-13T14:37:10.316Z,101162.25
2023-02-13T14:39:41.918Z,101160.75
2023-02-13T14:42:29.820Z,101156.38
2023-02-13T14:45:02.302Z,101147.56
2023-02-13T14:47:56.430Z,101138.75
2023-02-13T14:50:30.307Z,101140.91
2023-02-13T14:53:02.316Z,101135.22
2023-02-13T14:55:42.307Z,101128.22
2023-02-13T14:58:47.341Z,101112.94
2023-02-13T15:01:42.266Z,101120.53
2023-02-13T15:04:39.439Z,101124.16
2023-02-13T15:07:23.768Z,101120.53
2023-02-13T15:10:01.653Z,101118.53
2023-02-13T15:12:36.278Z,101120.53
2023-02-13T15:15:26.128Z,101123.13
2023-02-13T15:18:11.293Z,101125.41
2023-02-13T15:20:44.200Z,101116.47
2023-02-13T15:23:23.236Z,101104.31
2023-02-13T15:26:25.119Z,101106.97
2023-02-13T15:29:03.716Z,101113.44
2023-02-13T15:31:34.741Z,101112.03
2023-02-13T15:34:02.844Z,101114.66
2023-02-13T15:36:41.460Z,101124.38
2023-02-13T15:39:18.955Z,101116.84
2023-02-13T15:41:50.234Z,101121.25
2023-02-13T15:44:23.089Z,101132.41
2023-02-13T15:46:52.241Z,101127.09
2023-02-13T15:49:24.752Z,101138.00
2023-02-13T15:52:04.840Z,101141.81
2023-02-13T15:54:35.456Z,101137.25
2023-02-13T15:57:06.733Z,101131.03
2023-02-13T15:59:40.022Z,101140.44
2023-02-13T16:02:46.070Z,101138.63
2023-02-13T16:05:17.147Z,101144.75
2023-02-13T16:07:56.308Z,101143.75
2023-02-13T16:10:34.414Z,101139.31
2023-02-13T16:13:06.029Z,101135.69
2023-02-13T16:15:37.253Z,101134.88
2023-02-13T16:18:06.274Z,101139.63
2023-02-13T16:20:35.413Z,101143.28
2023-02-13T16:23:19.888Z,101155.53
2023-02-13T16:25:48.705Z,101151.53
2023-02-13T16:28:22.883Z,101143.84
2023-02-13T16:31:16.743Z,101154.19
2023-02-13T16:33:45.030Z,101164.50
2023-02-13T16:36:12.175Z,101176.75
2023-02-13T16:38:48.971Z,101166.44
2023-02-13T16:41:31.005Z,101163.09
2023-02-13T16:44:06.324Z,101167.56
2023-02-13T16:46:52.829Z,101171.91
2023-02-13T16:49:23.865Z,101175.41
2023-02-13T16:52:20.154Z,101163.94
2023-02-13T16:54:56.936Z,101175.69
2023-02-13T16:57:32.939Z,101182.69
2023-02-13T17:00:24.515Z,101168.69
2023-02-13T17:02:52.831Z,101157.03
2023-02-13T17:05:24.508Z,101158.31
2023-02-13T17:07:57.959Z,101146.69
2023-02-13T17:10:31.302Z,101138.06
2023-02-13T17:13:02.759Z,101129.41
2023-02-13T17:15:32.375Z,101126.09
2023-02-13T17:18:00.027Z,101136.13
2023-02-13T17:20:32.584Z,101146.81
2023-02-13T17:23:06.170Z,101154.06
2023-02-13T17:25:37.496Z,101129.53
2023-02-13T17:28:16.884Z,101127.84
2023-02-13T17:30:45.479Z,101123.16
2023-02-13T17:33:20.781Z,101132.75
2023-02-13T17:35:48.474Z,101126.78
2023-02-13T17:38:16.039Z,101132.13
2023-02-13T17:40:44.760Z,101136.88
2023-02-13T17:43:14.993Z,101127.81
2023-02-13T17:45:43.603Z,101129.63
2023-02-13T17:48:10.920Z,101140.22
2023-02-13T17:50:38.896Z,101145.53
2023-02-13T17:53:18.950Z,101137.00
2023-02-13T17:55:46.852Z,101143.00
2023-02-13T17:58:13.971Z,101137.84
2023-02-13T18:00:40.940Z,101128.38
2023-02-13T18:03:08.319Z,101137.44
2023-02-13T18:05:35.445Z,101139.41
2023-02-13T18:08:02.726Z,101145.41
2023-02-13T18:10:33.529Z,101156.16
2023-02-13T18:13:04.389Z,101156.16
2023-02-13T18:15:40.879Z,101172.88
2023-02-13T18:18:08.797Z,101162.59
2023-02-13T18:20:35.885Z,101151.97
2023-02-13T18:23:03.341Z,101146.38
2023-02-13T18:25:30.335Z,101135.50
2023-02-13T18:27:57.693Z,101132.28
2023-02-13T18:30:25.120Z,101145.22
2023-02-13T18:32:58.904Z,101159.75
2023-02-13T18:35:26.592Z,101167.84
2023-02-13T18:37:54.331Z,101179.56
2023-02-13T18:40:22.431Z,101186.25
2023-02-13T18:42:51.076Z,101175.41
2023-02-13T18:45:31.077Z,101171.50
2023-02-13T18:47:58.681Z,101171.78
2023-02-13T18:50:25.584Z,101177.06
2023-02-13T18:52:53.016Z,101173.47
2023-02-13T18:55:20.190Z,101186.56
2023-02-13T18:57:47.912Z,101175.44
2023-02-13T19:00:16.500Z,101186.31
2023-02-13T19:02:43.939Z,101192.56
2023-02-13T19:05:11.102Z,101201.09
2023-02-13T19:07:38.346Z,101205.00
2023-02-13T19:10:07.076Z,101198.88
2023-02-13T19:12:34.439Z,101200.00
2023-02-13T19:15:01.698Z,101202.50
2023-02-13T19:17:29.108Z,101218.22
2023-02-13T19:19:56.086Z,101224.25
2023-02-13T19:22:23.484Z,101223.41
2023-02-13T19:24:50.585Z,101234.53
2023-02-13T19:27:18.000Z,101232.88
2023-02-13T19:29:45.004Z,101217.00
2023-02-13T19:32:12.330Z,101219.78
2023-02-13T19:34:39.472Z,101219.50
2023-02-13T19:37:06.633Z,101230.94
2023-02-13T19:39:33.708Z,101222.13
2023-02-13T19:42:07.307Z,101223.13
2023-02-13T19:44:34.316Z,101224.78
2023-02-13T19:47:01.588Z,101217.69
2023-02-13T19:49:28.628Z,101215.72
2023-02-13T19:51:55.870Z,101215.88
2023-02-13T19:54:23.278Z,101222.03
2023-02-13T19:56:50.790Z,101218.38
2023-02-13T19:59:17.891Z,101223.66
2023-02-13T20:01:45.751Z,101223.66
2023-02-13T20:04:13.029Z,101217.41
2023-02-13T20:06:40.559Z,101226.19
2023-02-13T20:09:13.720Z,101225.34
2023-02-13T20:11:43.057Z,101222.97
2023-02-13T20:14:14.825Z,101227.19
2023-02-13T20:16:46.242Z,101242.91
2023-02-13T20:19:14.163Z,101247.38
2023-02-13T20:21:42.764Z,101243.75
2023-02-13T20:24:11.772Z,101236.78
2023-02-13T20:26:40.633Z,101249.06
2023-02-13T20:29:08.822Z,101252.66
2023-02-13T20:31:41.268Z,101250.03
2023-02-13T20:34:09.177Z,101256.31
2023-02-13T20:36:36.573Z,101249.34
2023-02-13T20:39:07.364Z,101250.19
2023-02-13T20:41:37.300Z,101244.03
2023-02-13T20:44:08.749Z,101242.06
2023-02-13T20:46:39.829Z,101252.66
2023-02-13T20:49:07.265Z,101261.34
2023-02-13T20:51:35.672Z,101254.09
2023-02-13T20:54:05.019Z,101254.09
2023-02-13T20:56:32.359Z,101252.41
2023-02-13T20:59:00.820Z,101249.06
2023-02-13T21:01:32.836Z,101250.03
2023-02-13T21:04:00.308Z,101247.38
2023-02-13T21:06:32.327Z,101239.44
2023-02-13T21:09:01.666Z,101228.72
2023-02-13T21:11:29.501Z,101228.84
2023-02-13T21:13:58.131Z,101232.31
2023-02-13T21:16:31.932Z,101228.72
2023-02-13T21:19:01.534Z,101223.69
2023-02-13T21:21:33.949Z,101231.78
2023-02-13T21:24:08.172Z,101224.81
2023-02-13T21:26:36.487Z,101224.81
2023-02-13T21:29:05.941Z,101220.47
2023-02-13T21:31:44.164Z,101212.53
2023-02-13T21:34:13.052Z,101210.88
2023-02-13T21:36:40.514Z,101219.78
2023-02-13T21:39:11.154Z,101215.59
2023-02-13T21:41:44.778Z,101205.84
2023-02-13T21:44:14.794Z,101212.94
2023-02-13T21:46:44.326Z,101209.19
2023-02-13T21:49:15.119Z,101205.56
2023-02-13T21:51:43.232Z,101206.25
2023-02-13T21:54:10.804Z,101203.63
2023-02-13T21:56:41.520Z,101210.59
2023-02-13T21:59:10.144Z,101210.44
2023-02-13T22:01:55.863Z,101222.84
2023-02-13T22:04:22.945Z,101212.53
2023-02-13T22:06:52.090Z,101227.72
2023-02-13T22:09:22.195Z,101233.19
2023-02-13T22:11:51.832Z,101221.19
2023-02-13T22:14:19.515Z,101225.78
2023-02-13T22:16:50.846Z,101227.47
2023-02-13T22:19:18.777Z,101228.31
2023-02-13T22:21:46.277Z,101224.25
2023-02-13T22:24:13.746Z,101233.19
2023-02-13T22:26:45.192Z,101224.25
2023-02-13T22:29:15.555Z,101213.66
2023-02-13T22:31:46.419Z,101215.91
2023-02-13T22:34:14.805Z,101215.06
2023-02-13T22:36:42.816Z,101215.91
2023-02-13T22:39:11.108Z,101221.06
2023-02-13T22:41:38.646Z,101217.44
2023-02-13T22:44:06.327Z,101213.09
2023-02-13T22:46:34.651Z,101209.78
2023-02-13T22:49:02.685Z,101211.41
2023-02-13T22:51:35.522Z,101204.19
2023-02-13T22:54:03.339Z,101200.81
2023-02-13T22:56:32.227Z,101211.41
2023-02-13T22:58:59.672Z,101210.63
2023-02-13T23:01:29.184Z,101209.78
2023-02-13T23:03:57.637Z,101215.91
2023-02-13T23:06:26.778Z,101222.00
2023-02-13T23:08:54.294Z,101215.91
2023-02-13T23:11:45.739Z,101213.25
2023-02-13T23:14:13.941Z,101218.41
2023-02-13T23:17:06.184Z,101216.72
2023-02-13T23:19:33.167Z,101215.91
2023-02-13T23:22:00.751Z,101214.06
2023-02-13T23:24:30.228Z,101215.06
2023-02-13T23:26:58.884Z,101209.78
2023-02-13T23:29:26.596Z,101214.22
2023-02-13T23:31:53.926Z,101215.91
2023-02-13T23:34:21.088Z,101215.06
2023-02-13T23:36:48.465Z,101206.44
2023-02-13T23:39:15.538Z,101202.78
2023-02-13T23:41:42.706Z,101192.34
2023-02-13T23:44:09.643Z,101199.44
2023-02-13T23:46:37.051Z,101193.88
2023-02-13T23:49:06.062Z,101199.19
2023-02-13T23:51:34.527Z,101186.63
2023-02-13T23:54:01.714Z,101184.66
2023-02-13T23:56:28.890Z,101185.50
2023-02-13T23:58:56.878Z,101179.38
